EWG79A EDDL-LIRF
Flight info
| Callsign | EWG79A |
|---|---|
| Flight time | 1h 41m |
| Altitude | 37000 |
| Route | DODEN7Z DODEN Y852 TUSUK DCT ULNOK L607 ABUKA DCT BATUB DCT TIRUL M738 NATAG DCT LORLO DCT ADOSA DCT GAVRA/N0358F190 Y345 RITEB |
| Aircraft | A320/M-SDE2E3FGIJ1RWXYZ/EB1 |
Departure
| Time | 2026-05-06 15:19 |
|---|---|
| Airport | Düsseldorf Airport (EDDL) |
Arrival
| Time | 2026-05-06 17:01 |
|---|---|
| Airport | Rome–Fiumicino Leonardo da Vinci International Airport (LIRF) |
| Time | Latitude | Longitude | Altitude | Speed | Heading |
|---|---|---|---|---|---|
| 2026-05-06 15:05 | 51.27708 | 6.75917 | 127 ft | 0 kts | 91° |
| 2026-05-06 15:13 | 51.27707 | 6.75939 | 125 ft | 8 kts | 91° |
| 2026-05-06 15:14 | 51.27707 | 6.76012 | 130 ft | 5 kts | 83° |
| 2026-05-06 15:14 | 51.27766 | 6.76042 | 129 ft | 11 kts | 359° |
| 2026-05-06 15:14 | 51.27835 | 6.76014 | 128 ft | 9 kts | 312° |
| 2026-05-06 15:14 | 51.27843 | 6.75925 | 125 ft | 6 kts | 272° |
| 2026-05-06 15:15 | 51.27847 | 6.75864 | 129 ft | 9 kts | 278° |
| 2026-05-06 15:15 | 51.27861 | 6.75735 | 125 ft | 14 kts | 275° |
| 2026-05-06 15:15 | 51.27885 | 6.75610 | 124 ft | 11 kts | 320° |
| 2026-05-06 15:15 | 51.27942 | 6.75572 | 128 ft | 9 kts | 335° |
| 2026-05-06 15:16 | 51.28013 | 6.75515 | 125 ft | 15 kts | 332° |
| 2026-05-06 15:16 | 51.28107 | 6.75498 | 124 ft | 13 kts | 63° |
| 2026-05-06 15:16 | 51.28128 | 6.75549 | 125 ft | 0 kts | 51° |
| 2026-05-06 15:18 | 51.28137 | 6.75566 | 124 ft | 13 kts | 51° |
| 2026-05-06 15:18 | 51.28356 | 6.76019 | 126 ft | 86 kts | 53° |
| 2026-05-06 15:19 | 51.28838 | 6.77030 | 128 ft | 141 kts | 52° |
| 2026-05-06 15:19 | 51.29462 | 6.78360 | 672 ft | 148 kts | 50° |
| 2026-05-06 15:19 | 51.30088 | 6.79695 | 1430 ft | 150 kts | 50° |
| 2026-05-06 15:19 | 51.30737 | 6.81068 | 1869 ft | 168 kts | 50° |
| 2026-05-06 15:20 | 51.31490 | 6.82653 | 2206 ft | 191 kts | 50° |
| 2026-05-06 15:20 | 51.32344 | 6.84442 | 2560 ft | 214 kts | 50° |
| 2026-05-06 15:20 | 51.33301 | 6.86442 | 2943 ft | 239 kts | 51° |
| 2026-05-06 15:20 | 51.34316 | 6.88653 | 3575 ft | 252 kts | 52° |
| 2026-05-06 15:21 | 51.35147 | 6.91100 | 4371 ft | 261 kts | 73° |
| 2026-05-06 15:21 | 51.35210 | 6.94034 | 5175 ft | 271 kts | 97° |
| 2026-05-06 15:21 | 51.34898 | 6.97025 | 6032 ft | 275 kts | 98° |
| 2026-05-06 15:21 | 51.34582 | 7.00065 | 6849 ft | 279 kts | 99° |
| 2026-05-06 15:22 | 51.34263 | 7.03144 | 7654 ft | 282 kts | 99° |
| 2026-05-06 15:22 | 51.33944 | 7.06255 | 8499 ft | 286 kts | 98° |
| 2026-05-06 15:22 | 51.33621 | 7.09411 | 9294 ft | 290 kts | 98° |
| 2026-05-06 15:22 | 51.33292 | 7.12613 | 10060 ft | 294 kts | 100° |
| 2026-05-06 15:23 | 51.32731 | 7.15858 | 10402 ft | 315 kts | 111° |
| 2026-05-06 15:23 | 51.31673 | 7.19049 | 10649 ft | 334 kts | 127° |
| 2026-05-06 15:23 | 51.30146 | 7.21892 | 11256 ft | 339 kts | 139° |
| 2026-05-06 15:23 | 51.28439 | 7.24531 | 11947 ft | 344 kts | 139° |
| 2026-05-06 15:24 | 51.26723 | 7.27220 | 12642 ft | 348 kts | 139° |
| 2026-05-06 15:24 | 51.26038 | 7.28302 | 12915 ft | 350 kts | 139° |
| 2026-05-06 15:24 | 51.25312 | 7.29453 | 13198 ft | 352 kts | 138° |
| 2026-05-06 15:24 | 51.23565 | 7.32226 | 13850 ft | 357 kts | 138° |
| 2026-05-06 15:25 | 51.21792 | 7.35034 | 14465 ft | 360 kts | 138° |
| 2026-05-06 15:25 | 51.20004 | 7.37856 | 15078 ft | 363 kts | 138° |
| 2026-05-06 15:25 | 51.18198 | 7.40695 | 15703 ft | 366 kts | 138° |
| 2026-05-06 15:25 | 51.16376 | 7.43555 | 16326 ft | 369 kts | 137° |
| 2026-05-06 15:26 | 51.14535 | 7.46442 | 16940 ft | 372 kts | 138° |
| 2026-05-06 15:26 | 51.12668 | 7.49326 | 17574 ft | 376 kts | 138° |
| 2026-05-06 15:26 | 51.10775 | 7.52217 | 18191 ft | 379 kts | 138° |
| 2026-05-06 15:26 | 51.08863 | 7.55122 | 18727 ft | 382 kts | 139° |
| 2026-05-06 15:27 | 51.06933 | 7.58049 | 19289 ft | 384 kts | 138° |
| 2026-05-06 15:27 | 51.04996 | 7.60987 | 19817 ft | 386 kts | 140° |
| 2026-05-06 15:27 | 51.03048 | 7.63941 | 20328 ft | 389 kts | 140° |
| 2026-05-06 15:27 | 51.01086 | 7.66914 | 20826 ft | 392 kts | 140° |
| 2026-05-06 15:28 | 50.99104 | 7.69913 | 21330 ft | 394 kts | 139° |
| 2026-05-06 15:28 | 50.97094 | 7.72892 | 21819 ft | 396 kts | 143° |
| 2026-05-06 15:28 | 50.94858 | 7.75428 | 22287 ft | 396 kts | 151° |
| 2026-05-06 15:28 | 50.92509 | 7.77744 | 22750 ft | 398 kts | 151° |
| 2026-05-06 15:29 | 50.90147 | 7.80069 | 23201 ft | 401 kts | 151° |
| 2026-05-06 15:29 | 50.87767 | 7.82409 | 23604 ft | 404 kts | 151° |
| 2026-05-06 15:29 | 50.85372 | 7.84762 | 23980 ft | 406 kts | 151° |
| 2026-05-06 15:29 | 50.82964 | 7.87125 | 24383 ft | 408 kts | 151° |
| 2026-05-06 15:30 | 50.80548 | 7.89496 | 24776 ft | 410 kts | 151° |
| 2026-05-06 15:30 | 50.78122 | 7.91873 | 25170 ft | 412 kts | 151° |
| 2026-05-06 15:30 | 50.75683 | 7.94257 | 25556 ft | 413 kts | 151° |
| 2026-05-06 15:30 | 50.73227 | 7.96658 | 25939 ft | 415 kts | 151° |
| 2026-05-06 15:31 | 50.70804 | 7.99027 | 26340 ft | 416 kts | 152° |
| 2026-05-06 15:31 | 50.68337 | 8.01434 | 26736 ft | 418 kts | 152° |
| 2026-05-06 15:31 | 50.65829 | 8.03878 | 27118 ft | 419 kts | 152° |
| 2026-05-06 15:32 | 50.60752 | 8.08220 | 27841 ft | 417 kts | 163° |
| 2026-05-06 15:32 | 50.57943 | 8.09483 | 28208 ft | 414 kts | 172° |
| 2026-05-06 15:32 | 50.55086 | 8.10022 | 28565 ft | 414 kts | 178° |
| 2026-05-06 15:32 | 50.52252 | 8.10377 | 28914 ft | 415 kts | 178° |
| 2026-05-06 15:33 | 50.49368 | 8.10745 | 29259 ft | 416 kts | 178° |
| 2026-05-06 15:33 | 50.46440 | 8.11127 | 29594 ft | 418 kts | 177° |
| 2026-05-06 15:33 | 50.43541 | 8.11509 | 29910 ft | 419 kts | 177° |
| 2026-05-06 15:33 | 50.40628 | 8.11896 | 30174 ft | 420 kts | 177° |
| 2026-05-06 15:34 | 50.38698 | 8.12153 | 30332 ft | 422 kts | 177° |
| 2026-05-06 15:34 | 50.34814 | 8.12666 | 30650 ft | 424 kts | 176° |
| 2026-05-06 15:34 | 50.32827 | 8.12928 | 30831 ft | 424 kts | 176° |
| 2026-05-06 15:34 | 50.28930 | 8.13433 | 31232 ft | 424 kts | 177° |
| 2026-05-06 15:35 | 50.25992 | 8.13809 | 31570 ft | 424 kts | 177° |
| 2026-05-06 15:35 | 50.23058 | 8.14184 | 31892 ft | 423 kts | 177° |
| 2026-05-06 15:35 | 50.21073 | 8.14438 | 32124 ft | 423 kts | 177° |
| 2026-05-06 15:35 | 50.18140 | 8.14814 | 32424 ft | 423 kts | 177° |
| 2026-05-06 15:36 | 50.15221 | 8.15454 | 32728 ft | 425 kts | 169° |
| 2026-05-06 15:36 | 50.12399 | 8.16838 | 33028 ft | 428 kts | 159° |
| 2026-05-06 15:36 | 50.09737 | 8.18945 | 33301 ft | 431 kts | 151° |
| 2026-05-06 15:36 | 50.07217 | 8.21314 | 33587 ft | 431 kts | 152° |
| 2026-05-06 15:37 | 50.04638 | 8.23714 | 33868 ft | 431 kts | 152° |
| 2026-05-06 15:37 | 50.02060 | 8.26097 | 34167 ft | 430 kts | 153° |
| 2026-05-06 15:37 | 49.99489 | 8.28464 | 34461 ft | 430 kts | 153° |
| 2026-05-06 15:37 | 49.96912 | 8.30831 | 34722 ft | 430 kts | 153° |
| 2026-05-06 15:38 | 49.94342 | 8.33191 | 34965 ft | 430 kts | 153° |
| 2026-05-06 15:38 | 49.91761 | 8.35561 | 35193 ft | 430 kts | 153° |
| 2026-05-06 15:38 | 49.89182 | 8.37930 | 35410 ft | 431 kts | 153° |
| 2026-05-06 15:38 | 49.86609 | 8.40294 | 35606 ft | 431 kts | 152° |
| 2026-05-06 15:39 | 49.84152 | 8.42997 | 35802 ft | 436 kts | 142° |
| 2026-05-06 15:39 | 49.81925 | 8.46200 | 35984 ft | 437 kts | 140° |
| 2026-05-06 15:39 | 49.79716 | 8.49436 | 36166 ft | 438 kts | 140° |
| 2026-05-06 15:39 | 49.77495 | 8.52676 | 36350 ft | 438 kts | 140° |
| 2026-05-06 15:40 | 49.75268 | 8.55876 | 36531 ft | 437 kts | 143° |
| 2026-05-06 15:40 | 49.72829 | 8.58632 | 36718 ft | 433 kts | 152° |
| 2026-05-06 15:40 | 49.67335 | 8.62139 | 36790 ft | 425 kts | 170° |
| 2026-05-06 15:41 | 49.61531 | 8.63778 | 36784 ft | 424 kts | 172° |
| 2026-05-06 15:41 | 49.55720 | 8.65365 | 36784 ft | 424 kts | 172° |
| 2026-05-06 15:42 | 49.49932 | 8.66956 | 36784 ft | 424 kts | 172° |
| 2026-05-06 15:42 | 49.44231 | 8.69340 | 36784 ft | 428 kts | 160° |
| 2026-05-06 15:43 | 49.38690 | 8.72864 | 36783 ft | 428 kts | 160° |
| 2026-05-06 15:43 | 49.33174 | 8.76328 | 36780 ft | 429 kts | 161° |
| 2026-05-06 15:44 | 49.27704 | 8.79748 | 36787 ft | 429 kts | 161° |
| 2026-05-06 15:44 | 49.22208 | 8.83174 | 36794 ft | 430 kts | 161° |
| 2026-05-06 15:45 | 49.16639 | 8.86654 | 36791 ft | 430 kts | 161° |
| 2026-05-06 15:45 | 49.11112 | 8.90096 | 36796 ft | 428 kts | 161° |
| 2026-05-06 15:46 | 49.05599 | 8.93513 | 36811 ft | 427 kts | 161° |
| 2026-05-06 15:46 | 49.00095 | 8.96915 | 36815 ft | 427 kts | 161° |
| 2026-05-06 15:47 | 48.94592 | 9.00320 | 36815 ft | 426 kts | 161° |
| 2026-05-06 15:47 | 48.89103 | 9.03710 | 36837 ft | 426 kts | 162° |
| 2026-05-06 15:48 | 48.83646 | 9.07066 | 36836 ft | 425 kts | 162° |
| 2026-05-06 15:48 | 48.78129 | 9.10452 | 36845 ft | 425 kts | 162° |
| 2026-05-06 15:49 | 48.72669 | 9.13790 | 36850 ft | 425 kts | 162° |
| 2026-05-06 15:49 | 48.67148 | 9.17159 | 36824 ft | 425 kts | 162° |
| 2026-05-06 15:50 | 48.61664 | 9.20490 | 36837 ft | 424 kts | 162° |
| 2026-05-06 15:50 | 48.56189 | 9.23821 | 36847 ft | 424 kts | 162° |
| 2026-05-06 15:51 | 48.50714 | 9.27145 | 36840 ft | 424 kts | 162° |
| 2026-05-06 15:51 | 48.45281 | 9.30427 | 36826 ft | 423 kts | 162° |
| 2026-05-06 15:52 | 48.39811 | 9.33726 | 36824 ft | 423 kts | 162° |
| 2026-05-06 15:52 | 48.34345 | 9.37027 | 36843 ft | 424 kts | 162° |
| 2026-05-06 15:53 | 48.28878 | 9.40303 | 36834 ft | 423 kts | 162° |
| 2026-05-06 15:53 | 48.23409 | 9.43577 | 36820 ft | 424 kts | 162° |
| 2026-05-06 15:54 | 48.17924 | 9.46857 | 36798 ft | 424 kts | 162° |
| 2026-05-06 15:54 | 48.12451 | 9.50123 | 36816 ft | 425 kts | 162° |
| 2026-05-06 15:55 | 48.07024 | 9.53347 | 36829 ft | 425 kts | 162° |
| 2026-05-06 15:55 | 48.01545 | 9.56865 | 36823 ft | 430 kts | 154° |
| 2026-05-06 15:56 | 47.96605 | 9.61809 | 36830 ft | 434 kts | 149° |
| 2026-05-06 15:56 | 47.91624 | 9.66907 | 36830 ft | 434 kts | 150° |
| 2026-05-06 15:57 | 47.86630 | 9.72005 | 36837 ft | 434 kts | 150° |
| 2026-05-06 15:57 | 47.81639 | 9.77076 | 36819 ft | 434 kts | 150° |
| 2026-05-06 15:58 | 47.76656 | 9.82141 | 36881 ft | 433 kts | 151° |
| 2026-05-06 15:58 | 47.71687 | 9.87176 | 36887 ft | 432 kts | 151° |
| 2026-05-06 15:59 | 47.66718 | 9.92186 | 36889 ft | 431 kts | 151° |
| 2026-05-06 15:59 | 47.61761 | 9.97182 | 36900 ft | 431 kts | 151° |
| 2026-05-06 16:00 | 47.56807 | 10.02168 | 36895 ft | 430 kts | 151° |
| 2026-05-06 16:00 | 47.51855 | 10.07144 | 36870 ft | 430 kts | 152° |
| 2026-05-06 16:01 | 47.46902 | 10.12099 | 36879 ft | 430 kts | 152° |
| 2026-05-06 16:01 | 47.41938 | 10.17045 | 36884 ft | 430 kts | 152° |
| 2026-05-06 16:02 | 47.36979 | 10.21988 | 36887 ft | 430 kts | 152° |
| 2026-05-06 16:02 | 47.32023 | 10.26916 | 36883 ft | 430 kts | 152° |
| 2026-05-06 16:03 | 47.27052 | 10.31839 | 36869 ft | 430 kts | 152° |
| 2026-05-06 16:03 | 47.22087 | 10.36754 | 36864 ft | 430 kts | 152° |
| 2026-05-06 16:04 | 47.17117 | 10.41667 | 36864 ft | 431 kts | 152° |
| 2026-05-06 16:04 | 47.12123 | 10.46583 | 36850 ft | 432 kts | 152° |
| 2026-05-06 16:05 | 47.07126 | 10.51451 | 36857 ft | 429 kts | 156° |
| 2026-05-06 16:05 | 47.01716 | 10.54698 | 36863 ft | 418 kts | 169° |
| 2026-05-06 16:06 | 46.96150 | 10.57192 | 36851 ft | 418 kts | 168° |
| 2026-05-06 16:06 | 46.90659 | 10.59672 | 36851 ft | 418 kts | 168° |
| 2026-05-06 16:07 | 46.85062 | 10.62210 | 36853 ft | 419 kts | 168° |
| 2026-05-06 16:07 | 46.79498 | 10.64718 | 36854 ft | 419 kts | 169° |
| 2026-05-06 16:08 | 46.73946 | 10.67203 | 36868 ft | 419 kts | 169° |
| 2026-05-06 16:08 | 46.68342 | 10.69436 | 36864 ft | 417 kts | 173° |
| 2026-05-06 16:09 | 46.62700 | 10.71208 | 36871 ft | 414 kts | 174° |
| 2026-05-06 16:09 | 46.57061 | 10.72923 | 36880 ft | 414 kts | 174° |
| 2026-05-06 16:10 | 46.51459 | 10.74712 | 36888 ft | 415 kts | 173° |
| 2026-05-06 16:10 | 46.45822 | 10.76567 | 36903 ft | 416 kts | 173° |
| 2026-05-06 16:11 | 46.40143 | 10.78425 | 36932 ft | 415 kts | 173° |
| 2026-05-06 16:11 | 46.34546 | 10.80231 | 36936 ft | 415 kts | 174° |
| 2026-05-06 16:12 | 46.28900 | 10.82058 | 36946 ft | 415 kts | 173° |
| 2026-05-06 16:12 | 46.23266 | 10.83875 | 36910 ft | 415 kts | 173° |
| 2026-05-06 16:13 | 46.17629 | 10.85693 | 36927 ft | 414 kts | 173° |
| 2026-05-06 16:13 | 46.12019 | 10.87506 | 36930 ft | 413 kts | 173° |
| 2026-05-06 16:14 | 46.07355 | 10.89001 | 36933 ft | 413 kts | 173° |
| 2026-05-06 16:14 | 46.01709 | 10.90802 | 36927 ft | 413 kts | 174° |
| 2026-05-06 16:15 | 45.96143 | 10.92576 | 36915 ft | 412 kts | 173° |
| 2026-05-06 16:15 | 45.90563 | 10.94360 | 36921 ft | 412 kts | 174° |
| 2026-05-06 16:16 | 45.84959 | 10.96147 | 36916 ft | 412 kts | 174° |
| 2026-05-06 16:16 | 45.79370 | 10.97924 | 36905 ft | 411 kts | 174° |
| 2026-05-06 16:17 | 45.73832 | 10.99674 | 36911 ft | 410 kts | 174° |
| 2026-05-06 16:17 | 45.68263 | 11.01426 | 36899 ft | 409 kts | 174° |
| 2026-05-06 16:18 | 45.62715 | 11.03244 | 36870 ft | 410 kts | 172° |
| 2026-05-06 16:18 | 45.57249 | 11.05587 | 36874 ft | 413 kts | 169° |
| 2026-05-06 16:19 | 45.51831 | 11.08142 | 36868 ft | 412 kts | 169° |
| 2026-05-06 16:19 | 45.46414 | 11.10615 | 36871 ft | 411 kts | 169° |
| 2026-05-06 16:20 | 45.40974 | 11.12993 | 36867 ft | 410 kts | 170° |
| 2026-05-06 16:20 | 45.35515 | 11.15361 | 36866 ft | 410 kts | 170° |
| 2026-05-06 16:21 | 45.30064 | 11.17735 | 36883 ft | 410 kts | 170° |
| 2026-05-06 16:21 | 45.24611 | 11.20112 | 36887 ft | 409 kts | 170° |
| 2026-05-06 16:22 | 45.19172 | 11.22481 | 36859 ft | 409 kts | 170° |
| 2026-05-06 16:22 | 45.13720 | 11.24848 | 36867 ft | 410 kts | 170° |
| 2026-05-06 16:23 | 45.08265 | 11.27215 | 36863 ft | 410 kts | 170° |
| 2026-05-06 16:23 | 45.02806 | 11.29577 | 36864 ft | 410 kts | 170° |
| 2026-05-06 16:24 | 44.97364 | 11.31926 | 36845 ft | 411 kts | 170° |
| 2026-05-06 16:24 | 44.91897 | 11.34269 | 36854 ft | 412 kts | 170° |
| 2026-05-06 16:25 | 44.86400 | 11.36630 | 36855 ft | 413 kts | 170° |
| 2026-05-06 16:25 | 44.80900 | 11.38998 | 36855 ft | 414 kts | 170° |
| 2026-05-06 16:26 | 44.75407 | 11.41355 | 36853 ft | 415 kts | 170° |
| 2026-05-06 16:26 | 44.69900 | 11.43706 | 36838 ft | 415 kts | 170° |
| 2026-05-06 16:27 | 44.64374 | 11.46069 | 36846 ft | 416 kts | 170° |
| 2026-05-06 16:27 | 44.58836 | 11.48426 | 36873 ft | 415 kts | 170° |
| 2026-05-06 16:28 | 44.53319 | 11.50770 | 36889 ft | 414 kts | 170° |
| 2026-05-06 16:28 | 44.47817 | 11.53103 | 36896 ft | 413 kts | 170° |
| 2026-05-06 16:29 | 44.42324 | 11.55428 | 36902 ft | 412 kts | 171° |
| 2026-05-06 16:29 | 44.36833 | 11.57740 | 36917 ft | 411 kts | 171° |
| 2026-05-06 16:30 | 44.32285 | 11.59658 | 36924 ft | 410 kts | 171° |
| 2026-05-06 16:30 | 44.25899 | 11.62347 | 36932 ft | 410 kts | 171° |
| 2026-05-06 16:31 | 44.20460 | 11.64628 | 36933 ft | 409 kts | 171° |
| 2026-05-06 16:31 | 44.15010 | 11.66913 | 36932 ft | 409 kts | 171° |
| 2026-05-06 16:32 | 44.09561 | 11.69199 | 36915 ft | 409 kts | 171° |
| 2026-05-06 16:32 | 44.04108 | 11.71469 | 36910 ft | 410 kts | 171° |
| 2026-05-06 16:33 | 43.98639 | 11.73742 | 36895 ft | 412 kts | 171° |
| 2026-05-06 16:34 | 43.90401 | 11.77170 | 36910 ft | 414 kts | 171° |
| 2026-05-06 16:34 | 43.84887 | 11.79458 | 36926 ft | 413 kts | 171° |
| 2026-05-06 16:35 | 43.79391 | 11.81731 | 36896 ft | 413 kts | 171° |
| 2026-05-06 16:35 | 43.73857 | 11.83839 | 36898 ft | 412 kts | 174° |
| 2026-05-06 16:36 | 43.68266 | 11.85573 | 36612 ft | 414 kts | 175° |
| 2026-05-06 16:36 | 43.65446 | 11.86414 | 36345 ft | 414 kts | 175° |
| 2026-05-06 16:36 | 43.62630 | 11.87264 | 35749 ft | 416 kts | 174° |
| 2026-05-06 16:36 | 43.59796 | 11.88138 | 34999 ft | 418 kts | 174° |
| 2026-05-06 16:37 | 43.56962 | 11.89030 | 34406 ft | 417 kts | 174° |
| 2026-05-06 16:37 | 43.54147 | 11.89930 | 33909 ft | 413 kts | 174° |
| 2026-05-06 16:37 | 43.51360 | 11.90824 | 33353 ft | 409 kts | 174° |
| 2026-05-06 16:37 | 43.48626 | 11.91705 | 32849 ft | 404 kts | 174° |
| 2026-05-06 16:38 | 43.45901 | 11.92580 | 32349 ft | 400 kts | 174° |
| 2026-05-06 16:38 | 43.43209 | 11.93437 | 31842 ft | 396 kts | 174° |
| 2026-05-06 16:38 | 43.40545 | 11.94280 | 31362 ft | 392 kts | 174° |
| 2026-05-06 16:38 | 43.37898 | 11.95113 | 30867 ft | 387 kts | 174° |
| 2026-05-06 16:39 | 43.35277 | 11.95940 | 30395 ft | 384 kts | 175° |
| 2026-05-06 16:39 | 43.32689 | 11.96757 | 29910 ft | 380 kts | 175° |
| 2026-05-06 16:39 | 43.30125 | 11.97574 | 29377 ft | 377 kts | 174° |
| 2026-05-06 16:39 | 43.27580 | 11.98389 | 28731 ft | 371 kts | 174° |
| 2026-05-06 16:40 | 43.25085 | 11.99180 | 27857 ft | 367 kts | 174° |
| 2026-05-06 16:40 | 43.22613 | 11.99956 | 27015 ft | 362 kts | 174° |
| 2026-05-06 16:40 | 43.20171 | 12.00719 | 26209 ft | 358 kts | 174° |
| 2026-05-06 16:40 | 43.17759 | 12.01472 | 25404 ft | 354 kts | 174° |
| 2026-05-06 16:41 | 43.15375 | 12.02215 | 24630 ft | 350 kts | 174° |
| 2026-05-06 16:41 | 43.13014 | 12.02953 | 23876 ft | 346 kts | 173° |
| 2026-05-06 16:41 | 43.10691 | 12.03679 | 23093 ft | 343 kts | 173° |
| 2026-05-06 16:41 | 43.08377 | 12.04402 | 22228 ft | 340 kts | 173° |
| 2026-05-06 16:42 | 43.06074 | 12.05120 | 21389 ft | 339 kts | 173° |
| 2026-05-06 16:42 | 43.03782 | 12.05831 | 20638 ft | 336 kts | 173° |
| 2026-05-06 16:42 | 43.01518 | 12.06535 | 19981 ft | 335 kts | 172° |
| 2026-05-06 16:42 | 42.99376 | 12.07204 | 19633 ft | 331 kts | 172° |
| 2026-05-06 16:43 | 42.97107 | 12.07916 | 19224 ft | 329 kts | 172° |
| 2026-05-06 16:43 | 42.94881 | 12.08614 | 18840 ft | 326 kts | 171° |
| 2026-05-06 16:43 | 42.92676 | 12.09305 | 18461 ft | 324 kts | 171° |
| 2026-05-06 16:43 | 42.90487 | 12.09983 | 18052 ft | 322 kts | 171° |
| 2026-05-06 16:44 | 42.88303 | 12.10656 | 17626 ft | 321 kts | 171° |
| 2026-05-06 16:44 | 42.86132 | 12.11329 | 17193 ft | 320 kts | 171° |
| 2026-05-06 16:44 | 42.83965 | 12.12003 | 16779 ft | 319 kts | 171° |
| 2026-05-06 16:44 | 42.81808 | 12.12671 | 16379 ft | 318 kts | 171° |
| 2026-05-06 16:45 | 42.79652 | 12.13339 | 15980 ft | 317 kts | 171° |
| 2026-05-06 16:45 | 42.77507 | 12.14002 | 15620 ft | 315 kts | 171° |
| 2026-05-06 16:45 | 42.75372 | 12.14663 | 15263 ft | 314 kts | 171° |
| 2026-05-06 16:45 | 42.73247 | 12.15320 | 14902 ft | 313 kts | 171° |
| 2026-05-06 16:46 | 42.71140 | 12.15979 | 14694 ft | 307 kts | 169° |
| 2026-05-06 16:46 | 42.69150 | 12.16968 | 14512 ft | 305 kts | 157° |
| 2026-05-06 16:46 | 42.67310 | 12.18400 | 14222 ft | 305 kts | 153° |
| 2026-05-06 16:46 | 42.65444 | 12.19711 | 13897 ft | 299 kts | 166° |
| 2026-05-06 16:47 | 42.63429 | 12.20146 | 13577 ft | 291 kts | 183° |
| 2026-05-06 16:47 | 42.61408 | 12.20125 | 13212 ft | 290 kts | 184° |
| 2026-05-06 16:47 | 42.59397 | 12.20089 | 12872 ft | 288 kts | 184° |
| 2026-05-06 16:47 | 42.57405 | 12.20045 | 12547 ft | 286 kts | 184° |
| 2026-05-06 16:48 | 42.55433 | 12.20003 | 12299 ft | 281 kts | 184° |
| 2026-05-06 16:48 | 42.53479 | 12.19963 | 11935 ft | 280 kts | 184° |
| 2026-05-06 16:48 | 42.51534 | 12.19923 | 11569 ft | 280 kts | 184° |
| 2026-05-06 16:48 | 42.49589 | 12.19883 | 11211 ft | 279 kts | 184° |
| 2026-05-06 16:49 | 42.47666 | 12.19842 | 10896 ft | 277 kts | 185° |
| 2026-05-06 16:49 | 42.45751 | 12.19804 | 10547 ft | 275 kts | 185° |
| 2026-05-06 16:49 | 42.43829 | 12.19765 | 10200 ft | 275 kts | 185° |
| 2026-05-06 16:49 | 42.41955 | 12.19729 | 9872 ft | 273 kts | 185° |
| 2026-05-06 16:50 | 42.40062 | 12.19694 | 9536 ft | 271 kts | 185° |
| 2026-05-06 16:50 | 42.38153 | 12.19657 | 9158 ft | 270 kts | 184° |
| 2026-05-06 16:50 | 42.36280 | 12.19621 | 8728 ft | 269 kts | 184° |
| 2026-05-06 16:50 | 42.35035 | 12.19598 | 8470 ft | 270 kts | 184° |
| 2026-05-06 16:51 | 42.32545 | 12.19551 | 8003 ft | 267 kts | 183° |
| 2026-05-06 16:51 | 42.30690 | 12.19516 | 7684 ft | 264 kts | 183° |
| 2026-05-06 16:51 | 42.28900 | 12.19482 | 7442 ft | 259 kts | 183° |
| 2026-05-06 16:51 | 42.27126 | 12.19449 | 7196 ft | 253 kts | 183° |
| 2026-05-06 16:52 | 42.25388 | 12.19417 | 6956 ft | 247 kts | 184° |
| 2026-05-06 16:52 | 42.23691 | 12.19383 | 6713 ft | 241 kts | 183° |
| 2026-05-06 16:52 | 42.22028 | 12.19350 | 6471 ft | 236 kts | 182° |
| 2026-05-06 16:52 | 42.20403 | 12.19320 | 6224 ft | 231 kts | 184° |
| 2026-05-06 16:53 | 42.18808 | 12.19291 | 5959 ft | 227 kts | 183° |
| 2026-05-06 16:53 | 42.17262 | 12.19262 | 5717 ft | 223 kts | 183° |
| 2026-05-06 16:53 | 42.15777 | 12.19238 | 5545 ft | 217 kts | 183° |
| 2026-05-06 16:53 | 42.14279 | 12.19210 | 5367 ft | 214 kts | 184° |
| 2026-05-06 16:54 | 42.12822 | 12.18910 | 5188 ft | 212 kts | 194° |
| 2026-05-06 16:54 | 42.11370 | 12.18481 | 5009 ft | 213 kts | 193° |
| 2026-05-06 16:54 | 42.09924 | 12.18065 | 4848 ft | 211 kts | 193° |
| 2026-05-06 16:54 | 42.08497 | 12.17659 | 4661 ft | 208 kts | 193° |
| 2026-05-06 16:55 | 42.07101 | 12.17267 | 4483 ft | 203 kts | 190° |
| 2026-05-06 16:55 | 42.05713 | 12.17354 | 4280 ft | 201 kts | 170° |
| 2026-05-06 16:55 | 42.04365 | 12.17846 | 4043 ft | 200 kts | 166° |
| 2026-05-06 16:55 | 42.03033 | 12.18400 | 3789 ft | 201 kts | 165° |
| 2026-05-06 16:56 | 42.02160 | 12.18768 | 3615 ft | 199 kts | 165° |
| 2026-05-06 16:56 | 42.00861 | 12.19316 | 3380 ft | 193 kts | 164° |
| 2026-05-06 16:56 | 41.99614 | 12.19842 | 3143 ft | 184 kts | 165° |
| 2026-05-06 16:56 | 41.98414 | 12.20347 | 2882 ft | 177 kts | 165° |
| 2026-05-06 16:57 | 41.97261 | 12.20832 | 2646 ft | 170 kts | 165° |
| 2026-05-06 16:57 | 41.96153 | 12.21298 | 2428 ft | 164 kts | 165° |
| 2026-05-06 16:57 | 41.95076 | 12.21750 | 2193 ft | 160 kts | 164° |
| 2026-05-06 16:57 | 41.94026 | 12.22192 | 2004 ft | 156 kts | 164° |
| 2026-05-06 16:58 | 41.93001 | 12.22622 | 1807 ft | 152 kts | 164° |
| 2026-05-06 16:58 | 41.92019 | 12.23035 | 1597 ft | 144 kts | 164° |
| 2026-05-06 16:58 | 41.91068 | 12.23434 | 1400 ft | 142 kts | 165° |
| 2026-05-06 16:58 | 41.90131 | 12.23828 | 1214 ft | 141 kts | 164° |
| 2026-05-06 16:59 | 41.89194 | 12.24221 | 1013 ft | 141 kts | 162° |
| 2026-05-06 16:59 | 41.88268 | 12.24603 | 798 ft | 136 kts | 164° |
| 2026-05-06 16:59 | 41.87355 | 12.24984 | 662 ft | 138 kts | 161° |
| 2026-05-06 16:59 | 41.86439 | 12.25378 | 455 ft | 138 kts | 163° |
| 2026-05-06 17:00 | 41.85521 | 12.25767 | 256 ft | 140 kts | 163° |
| 2026-05-06 17:00 | 41.84597 | 12.26149 | 69 ft | 138 kts | 162° |
| 2026-05-06 17:00 | 41.83733 | 12.26513 | 17 ft | 115 kts | 162° |
| 2026-05-06 17:00 | 41.83107 | 12.26780 | 11 ft | 83 kts | 162° |
| 2026-05-06 17:01 | 41.82608 | 12.26989 | 12 ft | 68 kts | 163° |
| 2026-05-06 17:01 | 41.82218 | 12.27141 | 10 ft | 34 kts | 169° |
| 2026-05-06 17:01 | 41.82013 | 12.27126 | 11 ft | 29 kts | 190° |
| 2026-05-06 17:01 | 41.81819 | 12.27069 | 11 ft | 28 kts | 192° |
| 2026-05-06 17:02 | 41.81625 | 12.27074 | 14 ft | 28 kts | 163° |
| 2026-05-06 17:02 | 41.81437 | 12.27152 | 12 ft | 28 kts | 162° |
| 2026-05-06 17:02 | 41.81248 | 12.27233 | 14 ft | 28 kts | 165° |
| 2026-05-06 17:02 | 41.81059 | 12.27309 | 12 ft | 29 kts | 162° |
| 2026-05-06 17:03 | 41.80868 | 12.27341 | 12 ft | 28 kts | 189° |
| 2026-05-06 17:03 | 41.80685 | 12.27285 | 12 ft | 22 kts | 216° |
| 2026-05-06 17:03 | 41.80623 | 12.27107 | 13 ft | 23 kts | 249° |
| 2026-05-06 17:03 | 41.80566 | 12.26903 | 13 ft | 24 kts | 249° |
| 2026-05-06 17:04 | 41.80506 | 12.26685 | 15 ft | 25 kts | 250° |
| 2026-05-06 17:04 | 41.80445 | 12.26459 | 18 ft | 23 kts | 250° |
| 2026-05-06 17:04 | 41.80351 | 12.26368 | 16 ft | 19 kts | 158° |
| 2026-05-06 17:04 | 41.80226 | 12.26408 | 14 ft | 19 kts | 193° |
| 2026-05-06 17:05 | 41.80104 | 12.26336 | 15 ft | 20 kts | 204° |
| 2026-05-06 17:05 | 41.79971 | 12.26255 | 15 ft | 21 kts | 204° |
| 2026-05-06 17:05 | 41.79831 | 12.26167 | 15 ft | 23 kts | 206° |
| 2026-05-06 17:05 | 41.79699 | 12.26072 | 14 ft | 22 kts | 206° |
| 2026-05-06 17:06 | 41.79561 | 12.25984 | 14 ft | 20 kts | 204° |
| 2026-05-06 17:06 | 41.79495 | 12.25940 | 14 ft | 7 kts | 228° |
| 2026-05-06 17:06 | 41.79498 | 12.25907 | 14 ft | 1 kts | 286° |
| 2026-05-06 17:06 | 41.79503 | 12.25886 | 14 ft | 4 kts | 292° |
| 2026-05-06 17:07 | 41.79510 | 12.25868 | 16 ft | 0 kts | 295° |